sensor_id;sensor_type;location;lat;lon;timestamp;temperature;humidity
67555;HTU21D;54385;53.516;49.456;2024-03-02T00:01:56;21.76;14.98
67555;HTU21D;54385;53.516;49.456;2024-03-02T00:04:23;21.77;14.99
67555;HTU21D;54385;53.516;49.456;2024-03-02T00:06:54;21.75;14.99
67555;HTU21D;54385;53.516;49.456;2024-03-02T00:09:21;21.76;15.00
67555;HTU21D;54385;53.516;49.456;2024-03-02T00:11:48;21.74;14.98
67555;HTU21D;54385;53.516;49.456;2024-03-02T00:14:15;21.75;14.98
67555;HTU21D;54385;53.516;49.456;2024-03-02T00:16:42;21.75;14.98
67555;HTU21D;54385;53.516;49.456;2024-03-02T00:19:09;21.74;14.98
67555;HTU21D;54385;53.516;49.456;2024-03-02T00:21:36;21.74;14.97
67555;HTU21D;54385;53.516;49.456;2024-03-02T00:26:49;21.73;14.99
67555;HTU21D;54385;53.516;49.456;2024-03-02T00:29:17;21.73;14.99
67555;HTU21D;54385;53.516;49.456;2024-03-02T00:31:46;21.70;15.00
67555;HTU21D;54385;53.516;49.456;2024-03-02T00:34:14;21.72;14.99
67555;HTU21D;54385;53.516;49.456;2024-03-02T00:36:44;21.72;15.00
67555;HTU21D;54385;53.516;49.456;2024-03-02T00:39:12;21.70;15.01
67555;HTU21D;54385;53.516;49.456;2024-03-02T00:41:41;21.70;15.00
67555;HTU21D;54385;53.516;49.456;2024-03-02T00:44:12;21.70;15.00
67555;HTU21D;54385;53.516;49.456;2024-03-02T00:46:40;21.69;15.00
67555;HTU21D;54385;53.516;49.456;2024-03-02T00:51:38;21.67;15.01
67555;HTU21D;54385;53.516;49.456;2024-03-02T00:54:07;21.68;15.02
67555;HTU21D;54385;53.516;49.456;2024-03-02T00:56:34;21.67;15.01
67555;HTU21D;54385;53.516;49.456;2024-03-02T00:59:03;21.67;15.01
67555;HTU21D;54385;53.516;49.456;2024-03-02T01:01:30;21.66;15.01
67555;HTU21D;54385;53.516;49.456;2024-03-02T01:03:56;21.66;15.01
67555;HTU21D;54385;53.516;49.456;2024-03-02T01:06:23;21.65;15.01
67555;HTU21D;54385;53.516;49.456;2024-03-02T01:08:49;21.65;15.03
67555;HTU21D;54385;53.516;49.456;2024-03-02T01:11:17;21.64;15.01
67555;HTU21D;54385;53.516;49.456;2024-03-02T01:13:44;21.62;15.03
67555;HTU21D;54385;53.516;49.456;2024-03-02T01:16:12;21.61;15.04
67555;HTU21D;54385;53.516;49.456;2024-03-02T01:18:38;21.61;15.05
67555;HTU21D;54385;53.516;49.456;2024-03-02T01:21:05;21.61;15.05
67555;HTU21D;54385;53.516;49.456;2024-03-02T01:23:31;21.61;15.05
67555;HTU21D;54385;53.516;49.456;2024-03-02T01:25:58;21.59;15.06
67555;HTU21D;54385;53.516;49.456;2024-03-02T01:28:24;21.60;15.03
67555;HTU21D;54385;53.516;49.456;2024-03-02T01:30:51;21.59;15.05
67555;HTU21D;54385;53.516;49.456;2024-03-02T01:33:17;21.59;15.06
67555;HTU21D;54385;53.516;49.456;2024-03-02T01:35:44;21.58;15.06
67555;HTU21D;54385;53.516;49.456;2024-03-02T01:38:10;21.58;15.07
67555;HTU21D;54385;53.516;49.456;2024-03-02T01:40:37;21.55;15.06
67555;HTU21D;54385;53.516;49.456;2024-03-02T01:43:07;21.57;15.07
67555;HTU21D;54385;53.516;49.456;2024-03-02T01:45:34;21.57;15.08
67555;HTU21D;54385;53.516;49.456;2024-03-02T01:48:03;21.54;15.06
67555;HTU21D;54385;53.516;49.456;2024-03-02T01:50:34;21.54;15.07
67555;HTU21D;54385;53.516;49.456;2024-03-02T01:53:01;21.54;15.06
67555;HTU21D;54385;53.516;49.456;2024-03-02T01:55:28;21.54;15.06
67555;HTU21D;54385;53.516;49.456;2024-03-02T01:57:56;21.53;15.05
67555;HTU21D;54385;53.516;49.456;2024-03-02T02:00:23;21.55;15.05
67555;HTU21D;54385;53.516;49.456;2024-03-02T02:02:52;21.55;15.05
67555;HTU21D;54385;53.516;49.456;2024-03-02T02:05:19;21.55;15.03
67555;HTU21D;54385;53.516;49.456;2024-03-02T02:07:46;21.57;15.03
67555;HTU21D;54385;53.516;49.456;2024-03-02T02:10:13;21.55;15.05
67555;HTU21D;54385;53.516;49.456;2024-03-02T02:12:39;21.54;15.03
67555;HTU21D;54385;53.516;49.456;2024-03-02T02:15:41;21.54;15.06
67555;HTU21D;54385;53.516;49.456;2024-03-02T02:18:08;21.53;15.05
67555;HTU21D;54385;53.516;49.456;2024-03-02T02:20:34;21.51;15.07
67555;HTU21D;54385;53.516;49.456;2024-03-02T02:23:02;21.52;15.06
67555;HTU21D;54385;53.516;49.456;2024-03-02T02:25:29;21.52;15.06
67555;HTU21D;54385;53.516;49.456;2024-03-02T02:27:56;21.53;15.05
67555;HTU21D;54385;53.516;49.456;2024-03-02T02:30:31;21.54;15.05
67555;HTU21D;54385;53.516;49.456;2024-03-02T02:32:58;21.54;15.02
67555;HTU21D;54385;53.516;49.456;2024-03-02T02:35:25;21.54;15.02
67555;HTU21D;54385;53.516;49.456;2024-03-02T02:37:55;21.53;15.03
67555;HTU21D;54385;53.516;49.456;2024-03-02T02:40:23;21.52;15.02
67555;HTU21D;54385;53.516;49.456;2024-03-02T02:42:49;21.52;15.03
67555;HTU21D;54385;53.516;49.456;2024-03-02T02:45:18;21.52;15.03
67555;HTU21D;54385;53.516;49.456;2024-03-02T02:47:45;21.53;15.03
67555;HTU21D;54385;53.516;49.456;2024-03-02T02:50:17;21.51;15.03
67555;HTU21D;54385;53.516;49.456;2024-03-02T02:52:44;21.51;15.03
67555;HTU21D;54385;53.516;49.456;2024-03-02T02:55:19;21.51;15.04
67555;HTU21D;54385;53.516;49.456;2024-03-02T02:57:46;21.50;15.05
67555;HTU21D;54385;53.516;49.456;2024-03-02T03:00:14;21.50;15.04
67555;HTU21D;54385;53.516;49.456;2024-03-02T03:02:42;21.51;15.04
67555;HTU21D;54385;53.516;49.456;2024-03-02T03:05:10;21.49;15.05
67555;HTU21D;54385;53.516;49.456;2024-03-02T03:07:39;21.49;15.05
67555;HTU21D;54385;53.516;49.456;2024-03-02T03:10:06;21.49;15.06
67555;HTU21D;54385;53.516;49.456;2024-03-02T03:12:34;21.48;15.04
67555;HTU21D;54385;53.516;49.456;2024-03-02T03:15:04;21.47;15.05
67555;HTU21D;54385;53.516;49.456;2024-03-02T03:17:30;21.48;15.04
67555;HTU21D;54385;53.516;49.456;2024-03-02T03:19:57;21.48;15.05
67555;HTU21D;54385;53.516;49.456;2024-03-02T03:22:23;21.47;15.04
67555;HTU21D;54385;53.516;49.456;2024-03-02T03:24:50;21.48;15.04
67555;HTU21D;54385;53.516;49.456;2024-03-02T03:27:16;21.49;15.03
67555;HTU21D;54385;53.516;49.456;2024-03-02T03:29:43;21.50;15.02
67555;HTU21D;54385;53.516;49.456;2024-03-02T03:32:09;21.50;15.00
67555;HTU21D;54385;53.516;49.456;2024-03-02T03:34:36;21.50;14.98
67555;HTU21D;54385;53.516;49.456;2024-03-02T03:37:03;21.52;14.97
67555;HTU21D;54385;53.516;49.456;2024-03-02T03:39:29;21.51;14.96
67555;HTU21D;54385;53.516;49.456;2024-03-02T03:41:56;21.53;14.96
67555;HTU21D;54385;53.516;49.456;2024-03-02T03:44:22;21.54;14.95
67555;HTU21D;54385;53.516;49.456;2024-03-02T03:46:49;21.58;14.94
67555;HTU21D;54385;53.516;49.456;2024-03-02T03:49:15;21.59;14.90
67555;HTU21D;54385;53.516;49.456;2024-03-02T03:51:42;21.61;14.86
67555;HTU21D;54385;53.516;49.456;2024-03-02T03:54:09;21.64;14.84
67555;HTU21D;54385;53.516;49.456;2024-03-02T03:56:39;21.66;14.81
67555;HTU21D;54385;53.516;49.456;2024-03-02T03:59:06;21.68;14.77
67555;HTU21D;54385;53.516;49.456;2024-03-02T04:01:32;21.73;14.72
67555;HTU21D;54385;53.516;49.456;2024-03-02T04:04:02;21.75;14.70
67555;HTU21D;54385;53.516;49.456;2024-03-02T04:06:29;21.77;14.67
67555;HTU21D;54385;53.516;49.456;2024-03-02T04:08:56;21.80;14.63
67555;HTU21D;54385;53.516;49.456;2024-03-02T04:11:22;21.83;14.60
67555;HTU21D;54385;53.516;49.456;2024-03-02T04:13:50;21.85;14.55
67555;HTU21D;54385;53.516;49.456;2024-03-02T04:16:16;21.88;14.54
67555;HTU21D;54385;53.516;49.456;2024-03-02T04:18:43;21.93;14.49
67555;HTU21D;54385;53.516;49.456;2024-03-02T04:21:09;21.96;14.45
67555;HTU21D;54385;53.516;49.456;2024-03-02T04:23:35;21.99;14.41
67555;HTU21D;54385;53.516;49.456;2024-03-02T04:26:02;22.03;14.36
67555;HTU21D;54385;53.516;49.456;2024-03-02T04:28:28;22.08;14.32
67555;HTU21D;54385;53.516;49.456;2024-03-02T04:30:55;22.10;14.28
67555;HTU21D;54385;53.516;49.456;2024-03-02T04:33:21;22.13;14.26
67555;HTU21D;54385;53.516;49.456;2024-03-02T04:35:48;22.17;14.22
67555;HTU21D;54385;53.516;49.456;2024-03-02T04:38:14;22.20;14.17
67555;HTU21D;54385;53.516;49.456;2024-03-02T04:40:41;22.23;14.14
67555;HTU21D;54385;53.516;49.456;2024-03-02T04:43:07;22.26;14.10
67555;HTU21D;54385;53.516;49.456;2024-03-02T04:45:37;22.31;14.05
67555;HTU21D;54385;53.516;49.456;2024-03-02T04:48:04;22.35;14.00
67555;HTU21D;54385;53.516;49.456;2024-03-02T04:50:31;22.39;13.97
67555;HTU21D;54385;53.516;49.456;2024-03-02T04:52:58;22.43;13.92
67555;HTU21D;54385;53.516;49.456;2024-03-02T04:55:24;22.47;13.87
67555;HTU21D;54385;53.516;49.456;2024-03-02T04:58:11;22.52;13.82
67555;HTU21D;54385;53.516;49.456;2024-03-02T05:00:37;22.55;13.79
67555;HTU21D;54385;53.516;49.456;2024-03-02T05:03:04;22.60;13.74
67555;HTU21D;54385;53.516;49.456;2024-03-02T05:05:30;22.65;13.68
67555;HTU21D;54385;53.516;49.456;2024-03-02T05:07:57;22.70;13.63
67555;HTU21D;54385;53.516;49.456;2024-03-02T05:10:26;22.75;13.59
67555;HTU21D;54385;53.516;49.456;2024-03-02T05:12:55;22.79;13.55
67555;HTU21D;54385;53.516;49.456;2024-03-02T05:15:25;22.83;13.50
67555;HTU21D;54385;53.516;49.456;2024-03-02T05:17:52;22.90;13.43
67555;HTU21D;54385;53.516;49.456;2024-03-02T05:20:19;22.94;13.38
67555;HTU21D;54385;53.516;49.456;2024-03-02T05:22:45;23.00;13.33
67555;HTU21D;54385;53.516;49.456;2024-03-02T05:25:13;23.06;13.26
67555;HTU21D;54385;53.516;49.456;2024-03-02T05:27:39;23.12;13.19
67555;HTU21D;54385;53.516;49.456;2024-03-02T05:30:06;23.16;13.15
67555;HTU21D;54385;53.516;49.456;2024-03-02T05:32:33;23.21;13.11
67555;HTU21D;54385;53.516;49.456;2024-03-02T05:35:00;23.28;13.05
67555;HTU21D;54385;53.516;49.456;2024-03-02T05:37:27;23.32;12.99
67555;HTU21D;54385;53.516;49.456;2024-03-02T05:39:53;23.39;12.93
67555;HTU21D;54385;53.516;49.456;2024-03-02T05:42:20;23.45;12.88
67555;HTU21D;54385;53.516;49.456;2024-03-02T05:44:46;23.53;12.81
67555;HTU21D;54385;53.516;49.456;2024-03-02T05:47:16;23.58;12.78
67555;HTU21D;54385;53.516;49.456;2024-03-02T05:49:42;23.62;12.71
67555;HTU21D;54385;53.516;49.456;2024-03-02T05:52:10;23.68;12.68
67555;HTU21D;54385;53.516;49.456;2024-03-02T05:54:39;23.71;12.60
67555;HTU21D;54385;53.516;49.456;2024-03-02T05:57:05;23.75;12.59
67555;HTU21D;54385;53.516;49.456;2024-03-02T05:59:50;23.82;12.54
67555;HTU21D;54385;53.516;49.456;2024-03-02T06:02:17;23.86;12.49
67555;HTU21D;54385;53.516;49.456;2024-03-02T06:04:46;23.92;12.41
67555;HTU21D;54385;53.516;49.456;2024-03-02T06:07:12;23.97;12.39
67555;HTU21D;54385;53.516;49.456;2024-03-02T06:09:39;24.03;12.34
67555;HTU21D;54385;53.516;49.456;2024-03-02T06:12:05;24.08;12.29
67555;HTU21D;54385;53.516;49.456;2024-03-02T06:14:32;24.15;12.24
67555;HTU21D;54385;53.516;49.456;2024-03-02T06:16:58;24.18;12.19
67555;HTU21D;54385;53.516;49.456;2024-03-02T06:19:25;24.23;12.16
67555;HTU21D;54385;53.516;49.456;2024-03-02T06:21:52;24.30;12.11
67555;HTU21D;54385;53.516;49.456;2024-03-02T06:24:18;24.34;12.07
67555;HTU21D;54385;53.516;49.456;2024-03-02T06:26:44;24.40;12.02
67555;HTU21D;54385;53.516;49.456;2024-03-02T06:29:11;24.46;11.97
67555;HTU21D;54385;53.516;49.456;2024-03-02T06:31:37;24.55;11.88
67555;HTU21D;54385;53.516;49.456;2024-03-02T06:34:04;24.61;11.84
67555;HTU21D;54385;53.516;49.456;2024-03-02T06:36:30;24.65;11.79
67555;HTU21D;54385;53.516;49.456;2024-03-02T06:38:57;24.72;11.74
67555;HTU21D;54385;53.516;49.456;2024-03-02T06:41:23;24.79;11.70
67555;HTU21D;54385;53.516;49.456;2024-03-02T06:43:50;24.84;11.65
67555;HTU21D;54385;53.516;49.456;2024-03-02T06:46:20;24.87;11.62
67555;HTU21D;54385;53.516;49.456;2024-03-02T06:48:46;24.88;11.60
67555;HTU21D;54385;53.516;49.456;2024-03-02T06:51:13;24.93;11.59
67555;HTU21D;54385;53.516;49.456;2024-03-02T06:53:41;24.99;11.55
67555;HTU21D;54385;53.516;49.456;2024-03-02T06:56:08;25.03;11.50
67555;HTU21D;54385;53.516;49.456;2024-03-02T06:58:35;25.07;11.49
67555;HTU21D;54385;53.516;49.456;2024-03-02T07:01:02;25.12;11.46
67555;HTU21D;54385;53.516;49.456;2024-03-02T07:03:28;25.14;11.43
67555;HTU21D;54385;53.516;49.456;2024-03-02T07:05:54;25.18;11.40
67555;HTU21D;54385;53.516;49.456;2024-03-02T07:08:21;25.23;11.37
67555;HTU21D;54385;53.516;49.456;2024-03-02T07:10:47;25.30;11.33
67555;HTU21D;54385;53.516;49.456;2024-03-02T07:13:14;25.35;11.29
67555;HTU21D;54385;53.516;49.456;2024-03-02T07:15:40;25.43;11.24
67555;HTU21D;54385;53.516;49.456;2024-03-02T07:18:30;25.50;11.16
67555;HTU21D;54385;53.516;49.456;2024-03-02T07:20:57;25.54;11.14
67555;HTU21D;54385;53.516;49.456;2024-03-02T07:23:27;25.60;11.10
67555;HTU21D;54385;53.516;49.456;2024-03-02T07:25:53;25.66;11.05
67555;HTU21D;54385;53.516;49.456;2024-03-02T07:28:23;25.71;11.02
67555;HTU21D;54385;53.516;49.456;2024-03-02T07:31:00;25.78;10.88
67555;HTU21D;54385;53.516;49.456;2024-03-02T07:33:27;25.84;10.94
67555;HTU21D;54385;53.516;49.456;2024-03-02T07:35:57;25.90;10.84
67555;HTU21D;54385;53.516;49.456;2024-03-02T07:38:26;25.97;10.82
67555;HTU21D;54385;53.516;49.456;2024-03-02T07:40:52;26.04;10.80
67555;HTU21D;54385;53.516;49.456;2024-03-02T07:43:19;26.09;10.75
67555;HTU21D;54385;53.516;49.456;2024-03-02T07:45:46;26.13;10.72
67555;HTU21D;54385;53.516;49.456;2024-03-02T07:48:13;26.17;10.69
67555;HTU21D;54385;53.516;49.456;2024-03-02T07:50:41;26.19;10.69
67555;HTU21D;54385;53.516;49.456;2024-03-02T07:53:18;26.21;10.70
67555;HTU21D;54385;53.516;49.456;2024-03-02T07:55:44;26.21;10.69
67555;HTU21D;54385;53.516;49.456;2024-03-02T07:58:11;26.23;10.70
67555;HTU21D;54385;53.516;49.456;2024-03-02T08:00:40;26.24;10.70
67555;HTU21D;54385;53.516;49.456;2024-03-02T08:03:07;26.26;10.69
67555;HTU21D;54385;53.516;49.456;2024-03-02T08:05:37;26.28;10.69
67555;HTU21D;54385;53.516;49.456;2024-03-02T08:08:05;26.27;10.71
67555;HTU21D;54385;53.516;49.456;2024-03-02T08:10:31;26.25;10.75
67555;HTU21D;54385;53.516;49.456;2024-03-02T08:12:59;26.22;10.79
67555;HTU21D;54385;53.516;49.456;2024-03-02T08:15:26;26.18;10.85
67555;HTU21D;54385;53.516;49.456;2024-03-02T08:17:52;26.17;10.88
67555;HTU21D;54385;53.516;49.456;2024-03-02T08:20:21;26.17;10.90
67555;HTU21D;54385;53.516;49.456;2024-03-02T08:22:48;26.17;10.90
67555;HTU21D;54385;53.516;49.456;2024-03-02T08:25:14;26.19;10.89
67555;HTU21D;54385;53.516;49.456;2024-03-02T08:27:41;26.23;10.90
67555;HTU21D;54385;53.516;49.456;2024-03-02T08:30:09;26.23;10.90
67555;HTU21D;54385;53.516;49.456;2024-03-02T08:32:36;26.25;10.91
67555;HTU21D;54385;53.516;49.456;2024-03-02T08:35:03;26.28;10.90
67555;HTU21D;54385;53.516;49.456;2024-03-02T08:37:33;26.31;10.89
67555;HTU21D;54385;53.516;49.456;2024-03-02T08:39:59;26.33;10.90
67555;HTU21D;54385;53.516;49.456;2024-03-02T08:42:26;26.38;10.88
67555;HTU21D;54385;53.516;49.456;2024-03-02T08:44:53;26.38;10.88
67555;HTU21D;54385;53.516;49.456;2024-03-02T08:47:19;26.43;10.87
67555;HTU21D;54385;53.516;49.456;2024-03-02T08:49:49;26.47;10.85
67555;HTU21D;54385;53.516;49.456;2024-03-02T08:52:16;26.52;10.84
67555;HTU21D;54385;53.516;49.456;2024-03-02T08:54:43;26.53;10.83
67555;HTU21D;54385;53.516;49.456;2024-03-02T08:57:10;26.57;10.84
67555;HTU21D;54385;53.516;49.456;2024-03-02T08:59:37;26.58;10.85
67555;HTU21D;54385;53.516;49.456;2024-03-02T09:02:04;26.61;10.85
67555;HTU21D;54385;53.516;49.456;2024-03-02T09:04:31;26.62;10.84
67555;HTU21D;54385;53.516;49.456;2024-03-02T09:06:58;26.66;10.84
67555;HTU21D;54385;53.516;49.456;2024-03-02T09:09:27;26.66;10.83
67555;HTU21D;54385;53.516;49.456;2024-03-02T09:11:54;26.70;10.84
67555;HTU21D;54385;53.516;49.456;2024-03-02T09:14:24;26.71;10.83
67555;HTU21D;54385;53.516;49.456;2024-03-02T09:16:51;26.76;10.85
67555;HTU21D;54385;53.516;49.456;2024-03-02T09:19:18;26.77;10.85
67555;HTU21D;54385;53.516;49.456;2024-03-02T09:21:45;26.81;10.85
67555;HTU21D;54385;53.516;49.456;2024-03-02T09:24:12;26.82;10.86
67555;HTU21D;54385;53.516;49.456;2024-03-02T09:26:39;26.84;10.86
67555;HTU21D;54385;53.516;49.456;2024-03-02T09:29:09;26.86;10.85
67555;HTU21D;54385;53.516;49.456;2024-03-02T09:31:44;26.89;10.85
67555;HTU21D;54385;53.516;49.456;2024-03-02T09:34:12;26.89;10.88
67555;HTU21D;54385;53.516;49.456;2024-03-02T09:36:43;26.90;10.90
67555;HTU21D;54385;53.516;49.456;2024-03-02T09:39:10;26.94;10.90
67555;HTU21D;54385;53.516;49.456;2024-03-02T09:41:40;26.96;10.91
67555;HTU21D;54385;53.516;49.456;2024-03-02T09:44:10;26.97;10.90
67555;HTU21D;54385;53.516;49.456;2024-03-02T09:46:37;26.98;10.93
67555;HTU21D;54385;53.516;49.456;2024-03-02T09:49:05;26.99;10.94
67555;HTU21D;54385;53.516;49.456;2024-03-02T09:51:32;26.99;10.98
67555;HTU21D;54385;53.516;49.456;2024-03-02T09:54:03;26.96;11.02
67555;HTU21D;54385;53.516;49.456;2024-03-02T09:56:35;26.95;11.04
67555;HTU21D;54385;53.516;49.456;2024-03-02T09:59:02;26.96;11.07
67555;HTU21D;54385;53.516;49.456;2024-03-02T10:01:32;26.96;11.10
67555;HTU21D;54385;53.516;49.456;2024-03-02T10:04:00;26.98;11.10
67555;HTU21D;54385;53.516;49.456;2024-03-02T10:06:31;27.05;11.09
67555;HTU21D;54385;53.516;49.456;2024-03-02T10:08:58;27.07;11.08
67555;HTU21D;54385;53.516;49.456;2024-03-02T10:11:30;27.09;11.08
67555;HTU21D;54385;53.516;49.456;2024-03-02T10:14:13;27.13;11.10
67555;HTU21D;54385;53.516;49.456;2024-03-02T10:16:44;27.15;11.08
67555;HTU21D;54385;53.516;49.456;2024-03-02T10:19:21;27.21;11.06
67555;HTU21D;54385;53.516;49.456;2024-03-02T10:21:55;27.28;11.02
67555;HTU21D;54385;53.516;49.456;2024-03-02T10:24:24;27.38;10.98
67555;HTU21D;54385;53.516;49.456;2024-03-02T10:26:52;27.50;10.88
67555;HTU21D;54385;53.516;49.456;2024-03-02T10:29:19;27.63;10.80
67555;HTU21D;54385;53.516;49.456;2024-03-02T10:31:46;27.74;10.72
67555;HTU21D;54385;53.516;49.456;2024-03-02T10:34:14;27.86;10.63
67555;HTU21D;54385;53.516;49.456;2024-03-02T10:36:44;27.97;10.56
67555;HTU21D;54385;53.516;49.456;2024-03-02T10:39:14;28.09;10.48
67555;HTU21D;54385;53.516;49.456;2024-03-02T10:41:43;28.20;10.43
67555;HTU21D;54385;53.516;49.456;2024-03-02T10:44:15;28.31;10.35
67555;HTU21D;54385;53.516;49.456;2024-03-02T10:46:50;28.37;10.31
67555;HTU21D;54385;53.516;49.456;2024-03-02T10:49:17;28.40;10.31
67555;HTU21D;54385;53.516;49.456;2024-03-02T10:51:45;28.42;10.33
67555;HTU21D;54385;53.516;49.456;2024-03-02T10:54:16;28.49;10.30
67555;HTU21D;54385;53.516;49.456;2024-03-02T10:56:48;28.59;10.23
67555;HTU21D;54385;53.516;49.456;2024-03-02T10:59:33;28.70;10.14
67555;HTU21D;54385;53.516;49.456;2024-03-02T11:02:04;28.83;10.09
67555;HTU21D;54385;53.516;49.456;2024-03-02T11:04:35;28.89;10.03
67555;HTU21D;54385;53.516;49.456;2024-03-02T11:07:11;28.95;10.01
67555;HTU21D;54385;53.516;49.456;2024-03-02T11:09:59;28.98;10.00
67555;HTU21D;54385;53.516;49.456;2024-03-02T11:12:33;29.07;9.97
67555;HTU21D;54385;53.516;49.456;2024-03-02T11:15:06;29.22;9.88
67555;HTU21D;54385;53.516;49.456;2024-03-02T11:17:38;29.38;9.80
67555;HTU21D;54385;53.516;49.456;2024-03-02T11:20:08;29.54;9.69
67555;HTU21D;54385;53.516;49.456;2024-03-02T11:22:36;29.66;9.63
67555;HTU21D;54385;53.516;49.456;2024-03-02T11:25:26;29.80;9.53
67555;HTU21D;54385;53.516;49.456;2024-03-02T11:28:05;29.96;9.45
67555;HTU21D;54385;53.516;49.456;2024-03-02T11:33:12;30.27;9.27
67555;HTU21D;54385;53.516;49.456;2024-03-02T11:35:44;30.50;9.11
67555;HTU21D;54385;53.516;49.456;2024-03-02T11:38:18;30.83;8.92
67555;HTU21D;54385;53.516;49.456;2024-03-02T11:40:45;31.10;8.69
67555;HTU21D;54385;53.516;49.456;2024-03-02T11:43:12;31.36;8.53
67555;HTU21D;54385;53.516;49.456;2024-03-02T11:45:42;31.60;8.38
67555;HTU21D;54385;53.516;49.456;2024-03-02T11:48:34;31.84;8.18
67555;HTU21D;54385;53.516;49.456;2024-03-02T11:51:05;31.95;8.18
67555;HTU21D;54385;53.516;49.456;2024-03-02T11:53:33;32.10;8.07
67555;HTU21D;54385;53.516;49.456;2024-03-02T11:56:06;32.19;8.04
67555;HTU21D;54385;53.516;49.456;2024-03-02T11:58:42;32.27;8.02
67555;HTU21D;54385;53.516;49.456;2024-03-02T12:01:15;32.38;7.95
67555;HTU21D;54385;53.516;49.456;2024-03-02T12:03:47;32.52;7.92
67555;HTU21D;54385;53.516;49.456;2024-03-02T12:06:15;32.63;7.85
67555;HTU21D;54385;53.516;49.456;2024-03-02T12:08:43;32.74;7.76
67555;HTU21D;54385;53.516;49.456;2024-03-02T12:11:13;32.90;7.69
67555;HTU21D;54385;53.516;49.456;2024-03-02T12:13:41;33.04;7.62
67555;HTU21D;54385;53.516;49.456;2024-03-02T12:16:08;33.18;7.57
67555;HTU21D;54385;53.516;49.456;2024-03-02T12:18:35;33.37;7.44
67555;HTU21D;54385;53.516;49.456;2024-03-02T12:21:02;33.56;7.31
67555;HTU21D;54385;53.516;49.456;2024-03-02T12:23:30;33.72;7.25
67555;HTU21D;54385;53.516;49.456;2024-03-02T12:25:57;33.88;7.15
67555;HTU21D;54385;53.516;49.456;2024-03-02T12:28:24;34.05;7.07
67555;HTU21D;54385;53.516;49.456;2024-03-02T12:30:53;34.19;7.00
67555;HTU21D;54385;53.516;49.456;2024-03-02T12:33:20;34.37;6.89
67555;HTU21D;54385;53.516;49.456;2024-03-02T12:35:49;34.51;6.79
67555;HTU21D;54385;53.516;49.456;2024-03-02T12:38:16;34.56;6.76
67555;HTU21D;54385;53.516;49.456;2024-03-02T12:40:43;34.53;6.79
67555;HTU21D;54385;53.516;49.456;2024-03-02T12:43:10;34.49;6.84
67555;HTU21D;54385;53.516;49.456;2024-03-02T12:45:37;34.46;6.83
67555;HTU21D;54385;53.516;49.456;2024-03-02T12:48:04;34.33;6.87
67555;HTU21D;54385;53.516;49.456;2024-03-02T12:50:33;34.09;7.03
67555;HTU21D;54385;53.516;49.456;2024-03-02T12:53:00;33.79;7.23
67555;HTU21D;54385;53.516;49.456;2024-03-02T12:55:27;33.51;7.40
67555;HTU21D;54385;53.516;49.456;2024-03-02T12:57:55;33.29;7.50
67555;HTU21D;54385;53.516;49.456;2024-03-02T13:00:23;33.11;7.63
67555;HTU21D;54385;53.516;49.456;2024-03-02T13:02:50;32.94;7.75
67555;HTU21D;54385;53.516;49.456;2024-03-02T13:05:17;32.79;7.85
67555;HTU21D;54385;53.516;49.456;2024-03-02T13:07:46;32.61;7.98
67555;HTU21D;54385;53.516;49.456;2024-03-02T13:10:13;32.45;8.06
67555;HTU21D;54385;53.516;49.456;2024-03-02T13:12:43;32.31;8.18
67555;HTU21D;54385;53.516;49.456;2024-03-02T13:15:11;32.19;8.27
67555;HTU21D;54385;53.516;49.456;2024-03-02T13:17:38;31.99;8.37
67555;HTU21D;54385;53.516;49.456;2024-03-02T13:20:06;31.73;8.54
67555;HTU21D;54385;53.516;49.456;2024-03-02T13:22:36;31.41;8.79
67555;HTU21D;54385;53.516;49.456;2024-03-02T13:25:03;31.18;8.97
67555;HTU21D;54385;53.516;49.456;2024-03-02T13:27:31;30.95;9.14
67555;HTU21D;54385;53.516;49.456;2024-03-02T13:29:59;30.75;9.29
67555;HTU21D;54385;53.516;49.456;2024-03-02T13:32:28;30.62;9.40
67555;HTU21D;54385;53.516;49.456;2024-03-02T13:34:55;30.48;9.52
67555;HTU21D;54385;53.516;49.456;2024-03-02T13:37:22;30.24;9.70
67555;HTU21D;54385;53.516;49.456;2024-03-02T13:39:49;29.95;9.92
67555;HTU21D;54385;53.516;49.456;2024-03-02T13:42:16;29.67;10.14
67555;HTU21D;54385;53.516;49.456;2024-03-02T13:44:43;29.45;10.36
67555;HTU21D;54385;53.516;49.456;2024-03-02T13:47:16;29.24;10.49
67555;HTU21D;54385;53.516;49.456;2024-03-02T13:49:43;29.05;10.67
67555;HTU21D;54385;53.516;49.456;2024-03-02T13:52:15;28.82;10.84
67555;HTU21D;54385;53.516;49.456;2024-03-02T13:54:49;28.62;11.04
67555;HTU21D;54385;53.516;49.456;2024-03-02T13:57:15;28.43;11.21
67555;HTU21D;54385;53.516;49.456;2024-03-02T13:59:46;28.24;11.36
67555;HTU21D;54385;53.516;49.456;2024-03-02T14:02:13;28.04;11.52
67555;HTU21D;54385;53.516;49.456;2024-03-02T14:04:40;27.86;11.69
67555;HTU21D;54385;53.516;49.456;2024-03-02T14:07:07;27.68;11.83
67555;HTU21D;54385;53.516;49.456;2024-03-02T14:09:34;27.51;11.98
67555;HTU21D;54385;53.516;49.456;2024-03-02T14:12:05;27.36;12.14
67555;HTU21D;54385;53.516;49.456;2024-03-02T14:14:34;27.19;12.27
67555;HTU21D;54385;53.516;49.456;2024-03-02T14:19:53;26.90;12.54
67555;HTU21D;54385;53.516;49.456;2024-03-02T14:22:26;26.75;12.65
67555;HTU21D;54385;53.516;49.456;2024-03-02T14:24:54;26.64;12.78
67555;HTU21D;54385;53.516;49.456;2024-03-02T14:27:20;26.50;12.91
67555;HTU21D;54385;53.516;49.456;2024-03-02T14:29:47;26.39;13.02
67555;HTU21D;54385;53.516;49.456;2024-03-02T14:32:15;26.28;13.10
67555;HTU21D;54385;53.516;49.456;2024-03-02T14:34:44;26.17;13.21
67555;HTU21D;54385;53.516;49.456;2024-03-02T14:37:14;26.08;13.32
67555;HTU21D;54385;53.516;49.456;2024-03-02T14:39:41;25.98;13.38
67555;HTU21D;54385;53.516;49.456;2024-03-02T14:42:09;25.89;13.47
67555;HTU21D;54385;53.516;49.456;2024-03-02T14:44:36;25.81;13.55
67555;HTU21D;54385;53.516;49.456;2024-03-02T14:47:03;25.74;13.62
67555;HTU21D;54385;53.516;49.456;2024-03-02T14:49:31;25.67;13.69
67555;HTU21D;54385;53.516;49.456;2024-03-02T14:52:00;25.60;13.74
67555;HTU21D;54385;53.516;49.456;2024-03-02T14:54:30;25.54;13.81
67555;HTU21D;54385;53.516;49.456;2024-03-02T14:57:02;25.48;13.87
67555;HTU21D;54385;53.516;49.456;2024-03-02T14:59:29;25.43;13.91
67555;HTU21D;54385;53.516;49.456;2024-03-02T15:01:57;25.36;13.99
67555;HTU21D;54385;53.516;49.456;2024-03-02T15:04:24;25.30;14.03
67555;HTU21D;54385;53.516;49.456;2024-03-02T15:06:51;25.24;14.07
67555;HTU21D;54385;53.516;49.456;2024-03-02T15:09:18;25.19;14.14
67555;HTU21D;54385;53.516;49.456;2024-03-02T15:11:46;25.13;14.20
67555;HTU21D;54385;53.516;49.456;2024-03-02T15:14:13;25.08;14.23
67555;HTU21D;54385;53.516;49.456;2024-03-02T15:16:40;25.03;14.26
67555;HTU21D;54385;53.516;49.456;2024-03-02T15:19:08;24.99;14.32
67555;HTU21D;54385;53.516;49.456;2024-03-02T15:21:35;24.95;14.35
67555;HTU21D;54385;53.516;49.456;2024-03-02T15:24:03;24.90;14.38